< Cyclone 198501 1985 Season Cyclone 198601 >
Cyclone 198502 (FRANK)
General InformationDetailed Track InformationTrack Information on Google MapsList of All Images || ResourceGoogle EarthGE AnimationAtom FeedGeoJSON
Detalied Best Track Wind (Time Zone = UTC)
Year Month Day Hour Lat. Long. Wind (kt) Gust (kt) Direc. of Major Storm Axis Radius of Major Storm Axis (nm) Radius of Minor Storm Axis (nm) Direc. of Major Gale Axis Radius of Major Gale Axis (nm) Radius of Minor Gale Axis (nm) Image
1984 12 19 18 -16.3 129.0 27 -1 symmetric - - symmetric - - Image
1984 12 20 00 -16.4 128.2 27 -1 symmetric - - symmetric - - Image
1984 12 20 06 -16.4 127.5 29 -1 symmetric - - symmetric - - Image
1984 12 20 12 -16.5 126.9 29 -1 symmetric - - symmetric - - Image
1984 12 20 18 -16.5 126.2 31 -1 symmetric - - symmetric - - Image
1984 12 21 00 -16.6 125.5 31 -1 symmetric - - symmetric - - Image
1984 12 21 06 -16.6 124.8 33 -1 symmetric - - symmetric - - Image
1984 12 21 12 -16.7 124.2 33 -1 symmetric - - symmetric - - Image
1984 12 21 18 -16.7 123.8 33 -1 symmetric - - symmetric - - Image
1984 12 22 00 -16.9 123.2 33 -1 symmetric - - symmetric - - Image
1984 12 22 06 -17.3 122.7 35 -1 symmetric - - symmetric - - Image
1984 12 22 09 -17.5 122.3 43 -1 symmetric - - symmetric - - Image
1984 12 22 12 -17.3 122.1 43 -1 symmetric - - symmetric - - Image
1984 12 22 14 -17.3 122.0 49 -1 symmetric - - symmetric - - Image
1984 12 22 16 -17.3 121.9 53 -1 symmetric - - symmetric - - Image
1984 12 22 18 -17.1 121.8 54 -1 symmetric - - symmetric - - Image
1984 12 22 19 -17.1 121.9 54 -1 symmetric - - symmetric - - Image
1984 12 22 20 -17.2 121.9 56 -1 symmetric - - symmetric - - Image
1984 12 22 21 -17.3 121.8 58 -1 symmetric - - symmetric - - Image
1984 12 22 22 -17.3 121.7 58 -1 symmetric - - symmetric - - Image
1984 12 22 23 -17.3 121.6 60 -1 symmetric - - symmetric - - Image
1984 12 23 00 -17.2 121.5 60 -1 symmetric - - symmetric - - Image
1984 12 23 06 -17.4 121.2 62 -1 symmetric - - symmetric - - Image
1984 12 23 09 -17.5 121.0 64 -1 symmetric - - symmetric - - Image
1984 12 23 12 -17.6 120.3 76 -1 symmetric - - symmetric - - Image
1984 12 23 16 -17.5 120.7 70 -1 symmetric - - symmetric - - Image
1984 12 23 18 -17.6 120.2 76 -1 symmetric - - symmetric - - Image
1984 12 23 21 -17.4 119.9 84 -1 symmetric - - symmetric - - Image
1984 12 24 00 -17.5 119.6 86 -1 symmetric - - symmetric - - Image
1984 12 24 03 -17.4 119.3 89 -1 symmetric - - symmetric - - Image
1984 12 24 06 -17.3 119.0 91 -1 symmetric - - symmetric - - Image
1984 12 24 09 -17.4 118.7 93 -1 symmetric - - symmetric - - Image
1984 12 24 12 -17.4 118.4 93 -1 symmetric - - symmetric - - Image
1984 12 24 18 -17.4 117.9 93 -1 symmetric - - symmetric - - Image
1984 12 25 00 -17.3 117.6 91 -1 symmetric - - symmetric - - Image
1984 12 25 06 -17.5 117.2 89 -1 symmetric - - symmetric - - Image
1984 12 25 12 -17.9 117.0 86 -1 symmetric - - symmetric - - Image
1984 12 25 18 -18.1 117.1 84 -1 symmetric - - symmetric - - Image
1984 12 26 00 -18.4 117.3 84 -1 symmetric - - symmetric - - Image
1984 12 26 03 -18.6 117.4 80 -1 symmetric - - symmetric - - Image
1984 12 26 06 -18.9 117.4 80 -1 symmetric - - symmetric - - Image
1984 12 26 09 -19.1 117.5 74 -1 symmetric - - symmetric - - Image
1984 12 26 12 -19.2 117.6 66 -1 symmetric - - symmetric - - Image
1984 12 26 16 -19.4 117.7 58 -1 symmetric - - symmetric - - Image
1984 12 26 18 -19.5 117.9 54 -1 symmetric - - symmetric - - Image
1984 12 26 21 -19.7 118.1 53 -1 symmetric - - symmetric - - Image
1984 12 27 00 -20.0 118.2 51 -1 symmetric - - symmetric - - Image
1984 12 27 03 -20.4 118.3 47 -1 symmetric - - symmetric - - Image
1984 12 27 06 -20.7 118.7 43 -1 symmetric - - symmetric - - Image
1984 12 27 09 -21.1 119.2 35 -1 symmetric - - symmetric - - Image
1984 12 27 12 -21.3 119.9 35 -1 symmetric - - symmetric - - Image
1984 12 27 18 -21.4 120.9 33 -1 symmetric - - symmetric - - Image
1984 12 28 00 -21.5 122.2 31 -1 symmetric - - symmetric - - Image
< Cyclone 198501 1985 Season Cyclone 198601 >

Help